createdAt,value
2023-01-27T00:00:03.531Z,3.4
2023-01-27T00:02:07.269Z,3
2023-01-27T00:10:25.130Z,1.8
2023-01-27T00:12:28.977Z,3.2
2023-01-27T00:16:36.456Z,2.6
2023-01-27T00:18:40.239Z,3.9
2023-01-27T00:20:46.735Z,3.5
2023-01-27T00:24:54.224Z,2.8
2023-01-27T00:26:57.962Z,3.4
2023-01-27T00:31:05.571Z,2.9
2023-01-27T00:33:09.186Z,3.2
2023-01-27T00:35:15.744Z,3.6
2023-01-27T00:37:19.469Z,3.5
2023-01-27T00:39:23.199Z,2.6
2023-01-27T00:40:26.486Z,4.2
2023-01-27T00:42:30.249Z,3.4
2023-01-27T00:44:33.968Z,4.1
2023-01-27T00:46:37.800Z,3.6
2023-01-27T00:48:44.299Z,4.4
2023-01-27T00:50:48.034Z,3.8
2023-01-27T00:52:51.748Z,2.8
2023-01-27T00:54:55.484Z,5.2
2023-01-27T00:56:59.261Z,5.3
2023-01-27T00:59:03.077Z,5.3
2023-01-27T01:01:06.809Z,5.8
2023-01-27T01:03:13.477Z,4
2023-01-27T01:05:17.201Z,5.5
2023-01-27T01:07:20.941Z,5.3
2023-01-27T01:09:24.696Z,5.5
2023-01-27T01:11:28.541Z,4.5
2023-01-27T01:13:32.397Z,4.3
2023-01-27T01:15:36.125Z,4.3
2023-01-27T01:17:42.790Z,6.7
2023-01-27T01:19:46.634Z,5.2
2023-01-27T01:21:50.353Z,2.9
2023-01-27T01:23:54.181Z,6.7
2023-01-27T01:25:57.808Z,4.6
2023-01-27T01:28:01.549Z,5.9
2023-01-27T01:30:05.295Z,5.7
2023-01-27T01:32:11.849Z,7
2023-01-27T01:34:15.584Z,4.1
2023-01-27T01:36:19.440Z,6.6
2023-01-27T01:38:37.596Z,7.6
2023-01-27T01:40:41.436Z,7.4
2023-01-27T01:42:45.181Z,6.8
2023-01-27T01:48:59.450Z,3.6
2023-01-27T01:51:03.230Z,7.2
2023-01-27T01:53:06.959Z,7.3
2023-01-27T01:55:11.223Z,7.5
2023-01-27T01:59:21.199Z,8.1
2023-01-27T02:01:25.016Z,4.9
2023-01-27T02:03:28.657Z,6.1
2023-01-27T02:05:32.405Z,7
2023-01-27T02:07:36.111Z,7
2023-01-27T02:09:39.980Z,6.9
2023-01-27T02:11:43.817Z,8.3
2023-01-27T02:13:50.468Z,7.4
2023-01-27T02:15:54.336Z,7.6
2023-01-27T02:17:58.172Z,8.4
2023-01-27T02:20:01.935Z,8.5
2023-01-27T02:22:05.616Z,6.7
2023-01-27T02:24:09.466Z,8.6
2023-01-27T02:26:13.173Z,8.6
2023-01-27T02:28:19.807Z,10.7
2023-01-27T02:30:23.511Z,4.5
2023-01-27T02:32:27.244Z,9.7
2023-01-27T02:33:30.525Z,10.6
2023-01-27T02:37:37.968Z,8.3
2023-01-27T02:41:48.232Z,10
2023-01-27T02:43:51.949Z,10.6
2023-01-27T02:45:55.722Z,9.5
2023-01-27T02:50:03.168Z,10
2023-01-27T02:52:06.957Z,8.1
2023-01-27T02:56:17.216Z,8.2
2023-01-27T02:58:20.936Z,9.6
2023-01-27T03:02:28.436Z,6.9
2023-01-27T03:04:32.111Z,7.4
2023-01-27T03:08:39.588Z,11.1
2023-01-27T03:10:46.108Z,9.8
2023-01-27T03:12:49.836Z,10.3
2023-01-27T03:14:53.571Z,8.2
2023-01-27T03:16:57.296Z,9.1
2023-01-27T03:19:01.036Z,10.2
2023-01-27T03:21:04.803Z,7.6
2023-01-27T03:23:08.486Z,8.6
2023-01-27T03:27:18.748Z,7.3
2023-01-27T03:29:22.516Z,7.2
2023-01-27T03:32:29.482Z,6.2
2023-01-27T03:34:33.236Z,6.7
2023-01-27T03:36:36.956Z,6.9
2023-01-27T03:40:47.247Z,7.9
2023-01-27T03:42:50.945Z,8.2
2023-01-27T03:44:54.682Z,6.6
2023-01-27T03:46:58.428Z,6.8
2023-01-27T03:49:02.161Z,6.9
2023-01-27T03:51:05.910Z,7
2023-01-27T03:53:12.453Z,7.2
2023-01-27T03:55:16.192Z,8.1
2023-01-27T03:57:19.904Z,6.4
2023-01-27T03:59:23.605Z,5.5
2023-01-27T04:01:27.468Z,5.1
2023-01-27T04:03:31.079Z,6.4
2023-01-27T04:05:34.790Z,5.6
2023-01-27T04:07:42.837Z,5.7
2023-01-27T04:09:46.593Z,5.4
2023-01-27T04:11:50.289Z,5.4
2023-01-27T04:13:54.067Z,5.9
2023-01-27T04:15:57.854Z,7
2023-01-27T04:18:01.491Z,5.4
2023-01-27T04:22:11.792Z,5.9
2023-01-27T04:24:15.569Z,4.9
2023-01-27T04:26:19.282Z,5
2023-01-27T04:27:22.526Z,5.5
2023-01-27T04:29:26.319Z,5.4
2023-01-27T04:31:30.081Z,4.2
2023-01-27T04:33:33.778Z,4.3
2023-01-27T04:35:40.337Z,5.9
2023-01-27T04:37:44.103Z,4.8
2023-01-27T04:39:47.817Z,5.4
2023-01-27T04:41:51.541Z,3.4
2023-01-27T04:43:55.273Z,3.7
2023-01-27T04:45:59.095Z,4.1
2023-01-27T04:48:02.776Z,3.5
2023-01-27T04:50:09.441Z,3
2023-01-27T04:52:13.163Z,4.3
2023-01-27T04:54:16.904Z,3.3
2023-01-27T04:56:20.629Z,3.4
2023-01-27T04:58:24.391Z,3.3
2023-01-27T05:00:28.137Z,3.4
2023-01-27T05:02:31.860Z,3.5
2023-01-27T05:04:38.442Z,3.9
2023-01-27T05:06:42.132Z,2.9
2023-01-27T05:17:00.915Z,4
2023-01-27T05:23:14.851Z,3
2023-01-27T05:29:40.171Z,4.6
2023-01-27T05:35:54.227Z,3.9
2023-01-27T05:44:09.159Z,2.8
2023-01-27T05:56:34.429Z,3.1
2023-01-27T05:58:38.179Z,1.7
2023-01-27T06:06:55.881Z,3.7
2023-01-27T06:08:59.601Z,2.2
2023-01-27T06:13:07.069Z,2.9
2023-01-27T06:17:17.430Z,3.1
2023-01-27T06:20:24.412Z,4.3
2023-01-27T06:22:28.149Z,2.5
2023-01-27T06:24:31.951Z,2.9
2023-01-27T06:26:35.602Z,1.3
2023-01-27T06:28:42.121Z,2.3
2023-01-27T06:30:45.848Z,2.9
2023-01-27T06:32:49.558Z,2.2
2023-01-27T06:34:53.270Z,2.4
2023-01-27T06:36:57.017Z,2.9
2023-01-27T06:39:00.715Z,2.3
2023-01-27T06:41:04.426Z,2.9
2023-01-27T06:43:10.980Z,1.9
2023-01-27T06:45:14.701Z,2.7
2023-01-27T06:47:18.429Z,2.3
2023-01-27T06:49:22.162Z,2.5
2023-01-27T06:51:25.884Z,2.5
2023-01-27T06:53:29.599Z,3.1
2023-01-27T06:55:33.354Z,2.8
2023-01-27T06:57:39.877Z,2.5
2023-01-27T07:01:47.390Z,2.1
2023-01-27T07:03:51.083Z,2.1
2023-01-27T07:05:54.817Z,2
2023-01-27T07:12:08.811Z,2.4
2023-01-27T07:14:12.518Z,1.7
2023-01-27T07:16:16.330Z,1.6
2023-01-27T07:17:19.522Z,1.8
2023-01-27T07:19:23.234Z,1.7
2023-01-27T07:23:30.685Z,2.2
2023-01-27T07:29:44.653Z,2.7
2023-01-27T07:31:48.371Z,1.7
2023-01-27T07:40:06.057Z,1.8
2023-01-27T07:42:09.748Z,2.2
2023-01-27T07:44:13.441Z,2
2023-01-27T07:46:17.148Z,2.1
2023-01-27T07:54:34.772Z,2.1
2023-01-27T07:56:38.538Z,1.9
2023-01-27T08:00:45.929Z,2.1
2023-01-27T08:02:49.726Z,2.1
2023-01-27T08:04:53.910Z,2.9
2023-01-27T08:09:03.481Z,2.2
2023-01-27T08:14:14.074Z,2
2023-01-27T08:16:17.848Z,3.1
2023-01-27T08:18:21.529Z,2.4
2023-01-27T08:20:25.227Z,2.2
2023-01-27T08:22:31.714Z,2.6
2023-01-27T08:24:35.386Z,1.6
2023-01-27T08:26:39.082Z,1.1
2023-01-27T08:28:42.725Z,1.9
2023-01-27T08:30:46.436Z,2.1
2023-01-27T08:32:50.182Z,2.5
2023-01-27T08:39:04.076Z,1.2
2023-01-27T08:41:07.756Z,2.2
2023-01-27T08:43:11.454Z,2.4
2023-01-27T08:45:15.180Z,2.9
2023-01-27T08:47:18.852Z,2.1
2023-01-27T08:49:22.549Z,2
2023-01-27T08:51:29.076Z,2.8
2023-01-27T08:53:32.882Z,2.4
2023-01-27T08:55:36.568Z,1.7
2023-01-27T08:57:40.259Z,2.4
2023-01-27T08:59:43.974Z,2.3
2023-01-27T09:01:47.674Z,2.2
2023-01-27T09:03:51.398Z,1.3
2023-01-27T09:05:57.956Z,2.3
2023-01-27T09:10:14.112Z,2.5
2023-01-27T09:12:34.886Z,3.2
2023-01-27T09:14:38.601Z,2.3
2023-01-27T09:16:42.338Z,3.1
2023-01-27T09:18:48.861Z,2.8
2023-01-27T09:22:56.328Z,3
2023-01-27T09:25:00.079Z,2.6
2023-01-27T09:27:03.763Z,2.6
2023-01-27T09:29:07.500Z,2.8
2023-01-27T09:31:11.357Z,2.5
2023-01-27T09:33:17.786Z,3.6
2023-01-27T09:35:21.483Z,2.9
2023-01-27T09:37:27.615Z,1.6
2023-01-27T09:39:28.953Z,2.3
2023-01-27T09:41:32.642Z,3.2
2023-01-27T09:43:36.379Z,2.7
2023-01-27T09:47:46.749Z,3.3
2023-01-27T09:49:50.474Z,3.1
2023-01-27T09:51:54.227Z,2.4
2023-01-27T09:53:57.968Z,2.2
2023-01-27T09:56:01.698Z,2.6
2023-01-27T09:58:05.431Z,3
2023-01-27T10:00:09.205Z,3.2
2023-01-27T10:02:17.248Z,1.4
2023-01-27T10:04:20.999Z,3.2
2023-01-27T10:06:24.644Z,2.7
2023-01-27T10:07:27.917Z,2.3
2023-01-27T10:09:31.718Z,2
2023-01-27T10:11:35.397Z,3.2
2023-01-27T10:13:39.156Z,3
2023-01-27T10:15:45.694Z,2.9
2023-01-27T10:17:49.491Z,3.1
2023-01-27T10:19:53.213Z,2.7
2023-01-27T10:21:59.522Z,3.5
2023-01-27T10:24:00.796Z,3
2023-01-27T10:26:04.424Z,2.9
2023-01-27T10:28:08.177Z,2.7
2023-01-27T10:30:15.076Z,3
2023-01-27T10:32:18.521Z,3.4
2023-01-27T10:36:26.094Z,2.3
2023-01-27T10:40:33.644Z,3.1
2023-01-27T10:44:43.961Z,3.7
2023-01-27T10:46:47.766Z,3.4
2023-01-27T10:48:51.453Z,3
2023-01-27T10:50:55.192Z,3.1
2023-01-27T10:55:02.687Z,3.6
2023-01-27T10:57:06.409Z,4
2023-01-27T10:59:12.978Z,4.2
2023-01-27T11:01:21.936Z,1.7
2023-01-27T11:03:20.462Z,3.1
2023-01-27T11:04:23.834Z,2.7
2023-01-27T11:06:27.489Z,3.3
2023-01-27T11:08:31.221Z,3.4
2023-01-27T11:10:35.000Z,3.3
2023-01-27T11:12:41.547Z,3
2023-01-27T11:14:45.283Z,4.1
2023-01-27T11:16:49.163Z,3.5
2023-01-27T11:18:52.780Z,2.8
2023-01-27T11:20:56.542Z,4.2
2023-01-27T11:25:04.067Z,3.3
2023-01-27T11:27:10.642Z,3.9
2023-01-27T11:29:14.396Z,3.2
2023-01-27T11:31:18.287Z,3.7
2023-01-27T11:33:21.941Z,4
2023-01-27T11:35:25.721Z,3.2
2023-01-27T11:37:29.482Z,3.8
2023-01-27T11:39:33.263Z,3.1
2023-01-27T11:41:39.867Z,3.3
2023-01-27T11:43:43.622Z,3.1
2023-01-27T11:54:02.599Z,2.4
2023-01-27T11:56:09.152Z,2.7
2023-01-27T11:58:12.952Z,2.5
2023-01-27T12:00:16.865Z,2.1
2023-01-27T12:03:23.885Z,2.9
2023-01-27T12:09:38.012Z,2.5
2023-01-27T12:13:45.569Z,1.7
2023-01-27T12:15:49.465Z,3.1
2023-01-27T12:17:53.137Z,3.1
2023-01-27T12:19:56.947Z,2.8
2023-01-27T12:28:14.896Z,3.3
2023-01-27T12:30:18.683Z,2.2
2023-01-27T12:34:26.255Z,3.1
2023-01-27T12:38:36.700Z,2.7
2023-01-27T12:40:40.435Z,3.1
2023-01-27T12:48:55.656Z,3.7
2023-01-27T12:50:59.419Z,2.5
2023-01-27T12:53:06.065Z,2.4
2023-01-27T12:55:09.815Z,1.4
2023-01-27T12:57:13.635Z,2.5
2023-01-27T12:59:43.177Z,3.2
2023-01-27T13:01:47.168Z,2.6
2023-01-27T13:03:50.849Z,1.9
2023-01-27T13:05:57.404Z,2.5
2023-01-27T13:10:04.898Z,2.8
2023-01-27T13:22:30.423Z,2.5
2023-01-27T13:24:34.164Z,2.2
2023-01-27T13:30:45.554Z,2.8
2023-01-27T13:39:03.387Z,2.6
2023-01-27T13:41:07.162Z,3.5
2023-01-27T13:43:10.951Z,3.2
2023-01-27T13:45:14.701Z,3.3
2023-01-27T13:47:18.473Z,3.1
2023-01-27T13:49:25.044Z,3.7
2023-01-27T13:51:28.806Z,3.1
2023-01-27T13:53:32.567Z,3.1
2023-01-27T13:54:35.869Z,1.9
2023-01-27T13:56:39.616Z,3.5
2023-01-27T13:58:44.565Z,3.1
2023-01-27T14:00:47.125Z,2
2023-01-27T14:02:53.767Z,2.8
2023-01-27T14:04:57.565Z,1.8
2023-01-27T14:07:01.248Z,2.3
2023-01-27T14:09:04.996Z,3.1
2023-01-27T14:11:08.775Z,2.2
2023-01-27T14:13:12.509Z,5.4
2023-01-27T14:15:16.236Z,2.9
2023-01-27T14:17:22.839Z,3.9
2023-01-27T14:19:26.629Z,3.3
2023-01-27T14:21:43.004Z,3.7
2023-01-27T14:23:34.113Z,2.6
2023-01-27T14:25:37.876Z,2.2
2023-01-27T14:29:45.355Z,2.6
2023-01-27T14:33:55.681Z,2.9
2023-01-27T14:35:59.412Z,3.4
2023-01-27T14:38:03.200Z,4.2
2023-01-27T14:40:06.995Z,3.2
2023-01-27T14:42:10.692Z,1.6
2023-01-27T14:44:14.437Z,4.1
2023-01-27T14:46:21.027Z,3.7
2023-01-27T14:48:24.752Z,3.8
2023-01-27T14:51:31.770Z,3
2023-01-27T14:53:35.551Z,3.4
2023-01-27T14:55:39.260Z,3.8
2023-01-27T14:57:43.059Z,3.2
2023-01-27T15:01:53.537Z,3.9
2023-01-27T15:03:57.111Z,2.7
2023-01-27T15:08:04.614Z,2.4
2023-01-27T15:10:08.365Z,4.5
2023-01-27T15:12:12.120Z,4.3
2023-01-27T15:14:18.681Z,3.3
2023-01-27T15:16:22.519Z,3
2023-01-27T15:18:26.208Z,1
2023-01-27T15:22:33.705Z,3.4
2023-01-27T15:24:37.431Z,2.6
2023-01-27T15:26:41.193Z,3.1
2023-01-27T15:28:47.732Z,4
2023-01-27T15:30:51.487Z,2.7
2023-01-27T15:32:55.267Z,2.7
2023-01-27T15:37:02.742Z,2.3
2023-01-27T15:39:06.488Z,3.1
2023-01-27T15:41:10.361Z,2.9
2023-01-27T15:43:16.802Z,2.5
2023-01-27T15:48:27.567Z,3.3
2023-01-27T15:50:31.295Z,2.9
2023-01-27T15:52:35.037Z,2.4
2023-01-27T15:54:38.814Z,2.9
2023-01-27T15:56:45.369Z,3.5
2023-01-27T15:58:50.624Z,2.2
2023-01-27T16:00:54.356Z,2.5
2023-01-27T16:02:58.050Z,3.8
2023-01-27T16:09:09.279Z,3.3
2023-01-27T16:11:15.818Z,2.4
2023-01-27T16:13:19.604Z,2.2
2023-01-27T16:15:23.306Z,2.1
2023-01-27T16:17:27.043Z,2.9
2023-01-27T16:19:30.783Z,3.3
2023-01-27T16:21:34.585Z,3.1
2023-01-27T16:23:38.280Z,4
2023-01-27T16:25:44.826Z,3.4
2023-01-27T16:27:48.600Z,4.3
2023-01-27T16:29:52.309Z,4.5
2023-01-27T16:31:57.695Z,5.1
2023-01-27T16:33:59.821Z,6.9
2023-01-27T16:36:03.540Z,2.9
2023-01-27T16:38:07.301Z,2.1
2023-01-27T16:40:13.806Z,3.6
2023-01-27T16:42:17.585Z,3.3
2023-01-27T16:44:21.322Z,3.2
2023-01-27T16:46:50.845Z,3
2023-01-27T16:48:54.571Z,3.5
2023-01-27T16:50:58.316Z,3.2
2023-01-27T16:53:04.882Z,4.1
2023-01-27T16:55:08.654Z,2.8
2023-01-27T16:57:12.440Z,2.8
2023-01-27T16:59:16.122Z,3.8
2023-01-27T17:01:19.991Z,3
2023-01-27T17:03:23.697Z,2.7
2023-01-27T17:05:27.368Z,2.6
2023-01-27T17:07:33.943Z,2.5
2023-01-27T17:09:37.697Z,3.5
2023-01-27T17:11:41.430Z,3.4
2023-01-27T17:13:45.374Z,2.9
2023-01-27T17:15:48.974Z,2.8
2023-01-27T17:17:52.727Z,3.2
2023-01-27T17:19:56.472Z,3.7
2023-01-27T17:22:03.032Z,4.7
2023-01-27T17:24:06.842Z,5
2023-01-27T17:26:10.526Z,4.3
2023-01-27T17:28:14.275Z,3.9
2023-01-27T17:30:18.020Z,3
2023-01-27T17:32:21.767Z,1.8
2023-01-27T17:34:25.529Z,2.9
2023-01-27T17:36:32.139Z,3
2023-01-27T17:38:35.823Z,3
2023-01-27T17:40:39.593Z,2.6
2023-01-27T17:41:42.845Z,4.5
2023-01-27T17:43:46.603Z,3.8
2023-01-27T17:45:50.408Z,4.9
2023-01-27T17:47:54.119Z,3.2
2023-01-27T17:50:00.708Z,3.5
2023-01-27T17:52:04.425Z,9.4
2023-01-27T17:54:08.191Z,3.3
2023-01-27T17:56:11.928Z,3.8
2023-01-27T17:58:15.676Z,3
2023-01-27T18:02:23.194Z,3.4
2023-01-27T18:06:33.441Z,4.5
2023-01-27T18:08:37.205Z,5.9
2023-01-27T18:27:13.778Z,3.1
2023-01-27T18:29:17.543Z,3.2
2023-01-27T18:37:35.292Z,3.3
2023-01-27T18:42:45.970Z,3.2
2023-01-27T18:44:49.726Z,3.6
2023-01-27T18:46:56.306Z,3.8
2023-01-27T18:49:00.003Z,4.6
2023-01-27T18:51:03.736Z,4.2
2023-01-27T18:53:07.491Z,3
2023-01-27T18:55:11.757Z,3.8
2023-01-27T18:57:14.940Z,4.2
2023-01-27T18:59:18.675Z,5.4
2023-01-27T19:01:25.207Z,14.6
2023-01-27T19:03:28.923Z,5.8
2023-01-27T19:05:32.657Z,4.3
2023-01-27T19:07:36.386Z,6.2
2023-01-27T19:09:40.102Z,5
2023-01-27T19:11:43.837Z,4.5
2023-01-27T19:13:47.566Z,5.3
2023-01-27T19:15:54.158Z,6.6
2023-01-27T19:17:57.829Z,3.8
2023-01-27T19:20:01.588Z,6.2
2023-01-27T19:22:05.266Z,4.4
2023-01-27T19:24:09.004Z,4.1
2023-01-27T19:26:12.693Z,4.5
2023-01-27T19:32:26.686Z,1.9
2023-01-27T19:37:37.396Z,3.8
2023-01-27T19:41:44.828Z,15.3
2023-01-27T19:45:55.249Z,4.2
2023-01-27T19:52:06.266Z,8.6
2023-01-27T19:54:10.013Z,3.8
2023-01-27T19:56:13.686Z,2.7
2023-01-27T19:58:20.234Z,3.7
2023-01-27T20:00:23.947Z,6
2023-01-27T20:02:27.749Z,7.1
2023-01-27T20:04:31.519Z,6.1
2023-01-27T20:06:35.197Z,6
2023-01-27T20:08:38.835Z,6.3
2023-01-27T20:12:49.059Z,6.3
2023-01-27T20:14:52.764Z,4.5
2023-01-27T20:16:56.459Z,4.7
2023-01-27T20:19:00.239Z,5.3
2023-01-27T20:21:03.923Z,9.1
2023-01-27T20:23:07.598Z,5.8
2023-01-27T20:27:17.824Z,5.1
2023-01-27T20:33:54.944Z,5.4
2023-01-27T20:40:08.892Z,2.8
2023-01-27T20:42:12.615Z,11
2023-01-27T20:44:16.328Z,6.5
2023-01-27T20:48:23.743Z,5.7
2023-01-27T20:58:45.338Z,8.6
2023-01-27T21:00:49.115Z,6.7
2023-01-27T21:02:52.762Z,6.5
2023-01-27T21:04:56.473Z,6.3
2023-01-27T21:09:06.944Z,8.1
2023-01-27T21:19:25.636Z,5.2
2023-01-27T21:21:29.350Z,6.1
2023-01-27T21:23:35.968Z,9.5
2023-01-27T21:25:39.703Z,7.2
2023-01-27T21:27:43.450Z,6.4
2023-01-27T21:28:46.717Z,6.9
2023-01-27T21:30:50.449Z,7.6
2023-01-27T21:32:54.240Z,6.5
2023-01-27T21:34:57.956Z,7.8
2023-01-27T21:37:04.495Z,8.4
2023-01-27T21:39:08.288Z,9.1
2023-01-27T21:43:15.753Z,4.8
2023-01-27T21:45:19.477Z,8.8
2023-01-27T21:47:23.187Z,10.5
2023-01-27T21:49:26.970Z,6.5
2023-01-27T21:51:33.548Z,6.4
2023-01-27T21:53:37.231Z,8.2
2023-01-27T21:57:46.319Z,7.5
2023-01-27T21:59:50.036Z,7.4
2023-01-27T22:01:53.714Z,7.6
2023-01-27T22:03:57.530Z,8.1
2023-01-27T22:06:03.951Z,7.3
2023-01-27T22:08:07.676Z,9.7
2023-01-27T22:10:11.383Z,9.2
2023-01-27T22:12:15.096Z,9.8
2023-01-27T22:16:22.564Z,9.7
2023-01-27T22:18:26.198Z,8.7
2023-01-27T22:22:36.388Z,8.1
2023-01-27T22:24:40.120Z,6.4
2023-01-27T22:25:43.366Z,5.2
2023-01-27T22:27:47.071Z,7.5
2023-01-27T22:34:01.077Z,10.9
2023-01-27T22:36:04.710Z,9.8
2023-01-27T22:38:08.412Z,6.4
2023-01-27T22:40:12.214Z,11.3
2023-01-27T22:42:15.924Z,9.2
2023-01-27T22:44:19.600Z,5.8
2023-01-27T22:46:23.337Z,8.1
2023-01-27T22:50:33.567Z,9.7
2023-01-27T22:54:40.953Z,14.4
2023-01-27T22:56:44.676Z,8.9
2023-01-27T22:58:48.366Z,13.9
2023-01-27T23:00:52.075Z,10.5
2023-01-27T23:02:58.618Z,16.1
2023-01-27T23:05:02.328Z,8.3
2023-01-27T23:11:13.456Z,6.8
2023-01-27T23:13:17.139Z,7.3
2023-01-27T23:17:27.361Z,10.4
2023-01-27T23:21:34.792Z,22.6
2023-01-27T23:22:37.995Z,13
2023-01-27T23:26:45.395Z,16.7
2023-01-27T23:30:55.715Z,9.3
2023-01-27T23:33:00.036Z,7
2023-01-27T23:35:03.763Z,8.1
2023-01-27T23:37:07.453Z,8
2023-01-27T23:41:14.832Z,6.9
2023-01-27T23:43:18.544Z,7.6
2023-01-27T23:45:25.052Z,10.4
2023-01-27T23:47:28.753Z,9.8
2023-01-27T23:49:32.572Z,6.2
2023-01-27T23:51:36.156Z,7.5
2023-01-27T23:53:39.870Z,5.5
2023-01-27T23:55:43.554Z,10
2023-01-27T23:57:47.242Z,7.8
2023-01-27T23:59:53.892Z,6.7
